Time;durP1;ratioP1;P1;durP2;ratioP2;P2;SDS_P1;SDS_P2;PMS_P1;PMS_P2;Temp;Humidity;BMP_temperature;BMP_pressure;BME280_temperature;BME280_humidity;BME280_pressure;Samples;Min_cycle;Max_cycle;Signal;HPM_P1;HPM_P2
2022/05/14 00:00:31;;;;;;;14.93;4.72;;;;;;;;;;4995941;28;20497;-78
2022/05/14 00:02:58;;;;;;;16.25;4.18;;;;;;;;;;5012174;28;20050;-78
2022/05/14 00:05:25;;;;;;;17.83;4.40;;;;;;;;;;5011485;28;20107;-78
2022/05/14 00:07:51;;;;;;;19.92;4.00;;;;;;;;;;5011886;28;20061;-78
2022/05/14 00:10:18;;;;;;;17.00;4.55;;;;;;;;;;5011738;28;20046;-78
2022/05/14 00:15:29;;;;;;;17.90;4.35;;;;;;;;;;5011898;28;20054;-78
2022/05/14 00:17:56;;;;;;;14.13;4.47;;;;;;;;;;5012000;28;20042;-78
2022/05/14 00:20:25;;;;;;;15.20;4.57;;;;;;;;;;5011533;28;20073;-78
2022/05/14 00:22:52;;;;;;;18.27;4.32;;;;;;;;;;4995575;28;20053;-78
2022/05/14 00:25:19;;;;;;;16.92;4.55;;;;;;;;;;4995199;28;20046;-78
2022/05/14 00:27:45;;;;;;;12.30;3.80;;;;;;;;;;5011368;28;20050;-78
2022/05/14 00:30:13;;;;;;;15.93;4.28;;;;;;;;;;5011900;28;20053;-78
2022/05/14 00:32:40;;;;;;;18.67;4.40;;;;;;;;;;5010420;28;20074;-78
2022/05/14 00:35:07;;;;;;;21.35;4.72;;;;;;;;;;5011560;28;20038;-78
2022/05/14 00:37:34;;;;;;;18.77;4.60;;;;;;;;;;5010665;28;20050;-78
2022/05/14 00:40:01;;;;;;;21.77;4.93;;;;;;;;;;5011706;28;20099;-78
2022/05/14 00:42:27;;;;;;;17.90;5.30;;;;;;;;;;5011202;28;20054;-78
2022/05/14 00:44:53;;;;;;;18.45;5.43;;;;;;;;;;5011652;28;20084;-78
2022/05/14 00:47:19;;;;;;;18.15;5.05;;;;;;;;;;5011147;28;20042;-78
2022/05/14 00:49:46;;;;;;;17.33;5.20;;;;;;;;;;5012510;28;20038;-78
2022/05/14 00:52:14;;;;;;;24.58;6.22;;;;;;;;;;5011386;28;20581;-78
2022/05/14 00:54:52;;;;;;;24.63;6.40;;;;;;;;;;5011263;28;20049;-78
2022/05/14 00:57:21;;;;;;;26.25;6.13;;;;;;;;;;4994862;28;20049;-78
2022/05/14 00:59:48;;;;;;;23.83;5.90;;;;;;;;;;4994767;28;20046;-78
2022/05/14 01:02:14;;;;;;;30.73;6.68;;;;;;;;;;4994331;28;20041;-78
2022/05/14 01:04:42;;;;;;;23.05;6.07;;;;;;;;;;5010488;28;20054;-78
2022/05/14 01:07:11;;;;;;;26.80;6.45;;;;;;;;;;5010884;28;20045;-78
2022/05/14 01:09:38;;;;;;;28.08;6.05;;;;;;;;;;4994756;28;20053;-78
2022/05/14 01:12:04;;;;;;;21.88;6.60;;;;;;;;;;4994384;28;20042;-78
2022/05/14 01:14:30;;;;;;;25.95;6.55;;;;;;;;;;4994575;28;20049;-78
2022/05/14 01:16:56;;;;;;;27.80;6.32;;;;;;;;;;5010491;28;20077;-78
2022/05/14 01:19:23;;;;;;;25.77;6.55;;;;;;;;;;5010558;28;20087;-78
2022/05/14 01:21:52;;;;;;;22.92;6.25;;;;;;;;;;5010906;28;20060;-78
2022/05/14 01:27:21;;;;;;;27.63;6.03;;;;;;;;;;5010639;28;20041;-78
2022/05/14 01:29:48;;;;;;;21.02;6.05;;;;;;;;;;5010484;28;20054;-78
2022/05/14 01:32:14;;;;;;;23.00;6.13;;;;;;;;;;5010145;28;20046;-78
2022/05/14 01:34:40;;;;;;;24.98;6.20;;;;;;;;;;5010676;28;20050;-79
2022/05/14 01:37:06;;;;;;;29.35;6.78;;;;;;;;;;5010103;28;20045;-78
2022/05/14 01:39:32;;;;;;;22.80;6.55;;;;;;;;;;5010516;28;20351;-79
2022/05/14 01:41:58;;;;;;;19.88;6.38;;;;;;;;;;5010221;28;20169;-78
2022/05/14 01:44:25;;;;;;;25.42;6.57;;;;;;;;;;5009992;28;20046;-78
2022/05/14 01:46:51;;;;;;;27.92;6.95;;;;;;;;;;5010149;28;20089;-78
2022/05/14 01:49:17;;;;;;;26.80;6.85;;;;;;;;;;5009053;28;20037;-78
2022/05/14 01:51:43;;;;;;;27.00;6.60;;;;;;;;;;5025888;28;20047;-78
2022/05/14 01:54:09;;;;;;;28.33;7.18;;;;;;;;;;5010306;28;20053;-78
2022/05/14 01:56:35;;;;;;;29.92;7.15;;;;;;;;;;5009993;28;20484;-78
2022/05/14 01:59:01;;;;;;;28.48;6.63;;;;;;;;;;4993366;28;20045;-78
2022/05/14 02:01:32;;;;;;;27.02;7.95;;;;;;;;;;5005318;28;20107;-78
2022/05/14 02:04:00;;;;;;;32.47;8.13;;;;;;;;;;5006204;28;20069;-78
2022/05/14 02:06:27;;;;;;;27.33;7.47;;;;;;;;;;5008564;28;20413;-78
2022/05/14 02:08:53;;;;;;;29.77;8.70;;;;;;;;;;4993025;28;20042;-78
2022/05/14 02:11:21;;;;;;;31.20;7.53;;;;;;;;;;5010800;28;20500;-78
2022/05/14 02:13:47;;;;;;;30.95;7.90;;;;;;;;;;5010091;28;20062;-78
2022/05/14 02:16:13;;;;;;;28.20;7.18;;;;;;;;;;5009476;28;20060;-78
2022/05/14 02:18:39;;;;;;;33.05;7.45;;;;;;;;;;5010103;28;20531;-78
2022/05/14 02:21:06;;;;;;;30.13;7.47;;;;;;;;;;5009526;28;20049;-78
2022/05/14 02:23:32;;;;;;;27.77;6.80;;;;;;;;;;5009415;28;20041;-78
2022/05/14 02:25:58;;;;;;;29.65;7.20;;;;;;;;;;4993056;28;20049;-78
2022/05/14 02:28:25;;;;;;;25.02;7.30;;;;;;;;;;5009362;28;20038;-78
2022/05/14 02:30:51;;;;;;;34.35;7.90;;;;;;;;;;5009692;28;20046;-78
2022/05/14 02:33:17;;;;;;;33.67;7.30;;;;;;;;;;5009340;28;20100;-78
2022/05/14 02:35:43;;;;;;;27.48;6.97;;;;;;;;;;4993651;28;20494;-78
2022/05/14 02:38:10;;;;;;;30.83;8.00;;;;;;;;;;5009081;28;20049;-78
2022/05/14 02:40:36;;;;;;;28.52;7.38;;;;;;;;;;4993033;28;20137;-78
2022/05/14 02:43:02;;;;;;;32.50;7.00;;;;;;;;;;5009590;28;20386;-78
2022/05/14 02:45:28;;;;;;;27.30;7.15;;;;;;;;;;5009162;28;20061;-78
2022/05/14 02:47:54;;;;;;;33.13;7.50;;;;;;;;;;5010431;28;20042;-78
2022/05/14 02:50:20;;;;;;;34.63;8.57;;;;;;;;;;4992904;28;20045;-78
2022/05/14 02:52:46;;;;;;;34.03;7.18;;;;;;;;;;4993305;28;20046;-78
2022/05/14 02:55:13;;;;;;;23.55;7.10;;;;;;;;;;5010585;28;20502;-78
2022/05/14 02:57:39;;;;;;;32.67;7.32;;;;;;;;;;5009128;28;20041;-78
2022/05/14 03:00:06;;;;;;;21.25;6.57;;;;;;;;;;5010445;28;20068;-78
2022/05/14 03:02:32;;;;;;;19.20;5.28;;;;;;;;;;5013088;28;20045;-78
2022/05/14 03:05:00;;;;;;;23.67;7.55;;;;;;;;;;5012887;28;20056;-78
2022/05/14 03:07:26;;;;;;;27.08;6.95;;;;;;;;;;5012880;28;20050;-78
2022/05/14 03:09:52;;;;;;;25.70;5.80;;;;;;;;;;5029412;28;20500;-78
2022/05/14 03:12:21;;;;;;;27.52;6.30;;;;;;;;;;5001536;28;20034;-79
2022/05/14 03:14:48;;;;;;;24.95;7.38;;;;;;;;;;4993329;28;20062;-78
2022/05/14 03:17:15;;;;;;;28.13;6.60;;;;;;;;;;4993071;28;20054;-78
2022/05/14 03:19:42;;;;;;;31.02;7.05;;;;;;;;;;4993340;28;20065;-78
2022/05/14 03:22:08;;;;;;;26.98;6.70;;;;;;;;;;4993385;28;20046;-78
2022/05/14 03:24:36;;;;;;;26.63;6.30;;;;;;;;;;4992683;28;20136;-78
2022/05/14 03:27:02;;;;;;;23.25;7.25;;;;;;;;;;4993120;28;20049;-78
2022/05/14 03:29:28;;;;;;;29.77;7.05;;;;;;;;;;4992847;28;20181;-78
2022/05/14 03:31:58;;;;;;;22.45;6.60;;;;;;;;;;4993429;28;20522;-78
2022/05/14 03:34:27;;;;;;;28.77;7.53;;;;;;;;;;4993049;28;20042;-78
2022/05/14 03:36:53;;;;;;;23.75;7.00;;;;;;;;;;4993118;28;20046;-78
2022/05/14 03:39:19;;;;;;;29.98;7.93;;;;;;;;;;4993618;28;20092;-78
2022/05/14 03:41:46;;;;;;;30.48;7.30;;;;;;;;;;4993015;28;20101;-78
2022/05/14 03:44:13;;;;;;;27.55;6.70;;;;;;;;;;4993288;28;20096;-78
2022/05/14 03:46:39;;;;;;;30.45;7.32;;;;;;;;;;4992963;28;20466;-78
2022/05/14 03:49:05;;;;;;;27.80;7.13;;;;;;;;;;4992448;28;20061;-78
2022/05/14 03:51:31;;;;;;;24.08;7.05;;;;;;;;;;4992466;28;20081;-78
2022/05/14 03:54:00;;;;;;;28.15;7.68;;;;;;;;;;4992767;28;20050;-78
2022/05/14 03:56:26;;;;;;;26.35;7.55;;;;;;;;;;4992466;28;20121;-78
2022/05/14 03:58:52;;;;;;;29.92;7.28;;;;;;;;;;4993116;28;20104;-78
2022/05/14 04:01:18;;;;;;;34.85;8.05;;;;;;;;;;4992670;28;21100;-78
2022/05/14 04:03:45;;;;;;;28.42;7.35;;;;;;;;;;5010807;28;20646;-78
2022/05/14 04:06:11;;;;;;;29.33;8.20;;;;;;;;;;5009924;28;20410;-78
2022/05/14 04:08:38;;;;;;;23.60;7.40;;;;;;;;;;4994004;28;20038;-78
2022/05/14 04:11:04;;;;;;;26.50;7.57;;;;;;;;;;5010468;28;20348;-78
2022/05/14 04:13:30;;;;;;;18.23;6.50;;;;;;;;;;5010330;28;20053;-78
2022/05/14 04:15:57;;;;;;;26.77;7.32;;;;;;;;;;4994712;28;20104;-78
2022/05/14 04:18:25;;;;;;;26.50;7.97;;;;;;;;;;5010635;28;20524;-78
2022/05/14 04:20:53;;;;;;;31.40;7.55;;;;;;;;;;5011025;28;20402;-78
2022/05/14 04:23:20;;;;;;;27.88;7.57;;;;;;;;;;5010308;28;20121;-78
2022/05/14 04:25:48;;;;;;;31.10;8.18;;;;;;;;;;4994350;28;20046;-79
2022/05/14 04:28:15;;;;;;;29.10;7.70;;;;;;;;;;5010577;28;20073;-78
2022/05/14 04:30:41;;;;;;;25.63;7.63;;;;;;;;;;5010908;28;20107;-78
2022/05/14 04:33:07;;;;;;;23.20;7.60;;;;;;;;;;5010723;28;20046;-78
2022/05/14 04:35:33;;;;;;;25.95;8.02;;;;;;;;;;5010288;28;20046;-78
2022/05/14 04:37:59;;;;;;;26.50;8.13;;;;;;;;;;5011001;28;20446;-78
2022/05/14 04:40:27;;;;;;;30.13;8.10;;;;;;;;;;5009771;28;20137;-78
2022/05/14 04:42:53;;;;;;;31.15;7.72;;;;;;;;;;5010847;28;20593;-78
2022/05/14 04:45:19;;;;;;;34.28;8.88;;;;;;;;;;4993599;28;20077;-78
2022/05/14 04:47:45;;;;;;;29.50;8.25;;;;;;;;;;5010387;28;20046;-78
2022/05/14 04:50:13;;;;;;;36.92;8.90;;;;;;;;;;4994212;28;20478;-78
2022/05/14 04:52:39;;;;;;;30.67;8.48;;;;;;;;;;5010228;28;20049;-78
2022/05/14 04:55:06;;;;;;;26.08;8.20;;;;;;;;;;5011364;28;20069;-78
2022/05/14 04:57:33;;;;;;;25.15;7.80;;;;;;;;;;5011372;28;20041;-78
2022/05/14 04:59:59;;;;;;;21.10;7.15;;;;;;;;;;5010449;28;20544;-78
2022/05/14 05:05:11;;;;;;;;;;;;;;;;;;5010204;28;20426;-78
2022/05/14 05:07:37;;;;;;;19.88;6.85;;;;;;;;;;5009783;28;19925;-78
2022/05/14 05:10:04;;;;;;;25.85;7.78;;;;;;;;;;5009734;28;20064;-79
2022/05/14 05:12:30;;;;;;;27.55;7.90;;;;;;;;;;4995874;28;20038;-78
2022/05/14 05:14:56;;;;;;;23.23;8.27;;;;;;;;;;4990256;28;20051;-79
2022/05/14 05:17:22;;;;;;;27.52;7.88;;;;;;;;;;4989656;28;20040;-78
2022/05/14 05:19:48;;;;;;;27.80;7.88;;;;;;;;;;4990544;28;20046;-79
2022/05/14 05:22:14;;;;;;;21.10;7.40;;;;;;;;;;4974125;28;20069;-79
2022/05/14 05:24:40;;;;;;;21.70;6.78;;;;;;;;;;4989562;28;20073;-79
2022/05/14 05:27:07;;;;;;;19.42;6.57;;;;;;;;;;4991320;28;20085;-79
2022/05/14 05:29:33;;;;;;;25.35;7.43;;;;;;;;;;4991979;28;20038;-79
2022/05/14 05:31:59;;;;;;;23.80;6.97;;;;;;;;;;4990169;28;20326;-79
2022/05/14 05:34:25;;;;;;;26.15;7.05;;;;;;;;;;4989830;28;20085;-79
2022/05/14 05:36:52;;;;;;;24.70;6.50;;;;;;;;;;4992521;28;20043;-77
2022/05/14 05:39:18;;;;;;;22.08;6.43;;;;;;;;;;4990668;28;20509;-77
2022/05/14 05:41:45;;;;;;;20.77;6.10;;;;;;;;;;4990694;28;20070;-77
2022/05/14 05:44:12;;;;;;;22.33;5.80;;;;;;;;;;4990035;28;20038;-77
2022/05/14 05:46:38;;;;;;;22.95;5.90;;;;;;;;;;4990439;28;20394;-78
2022/05/14 05:49:05;;;;;;;20.92;6.25;;;;;;;;;;4990764;28;20121;-77
2022/05/14 05:51:31;;;;;;;22.92;6.20;;;;;;;;;;4989572;28;20574;-79
2022/05/14 05:56:57;;;;;;;21.97;5.17;;;;;;;;;;4989620;28;20141;-79
2022/05/14 05:59:24;;;;;;;21.13;5.53;;;;;;;;;;4990596;28;20474;-78
2022/05/14 06:01:52;;;;;;;17.52;4.90;;;;;;;;;;4989659;28;20524;-77
2022/05/14 06:04:18;;;;;;;27.65;5.90;;;;;;;;;;4989246;28;20116;-78
2022/05/14 06:06:44;;;;;;;21.27;5.85;;;;;;;;;;4989343;28;20051;-78
2022/05/14 06:09:12;;;;;;;21.23;5.70;;;;;;;;;;4989619;28;20089;-79
2022/05/14 06:11:38;;;;;;;21.98;5.68;;;;;;;;;;4995750;28;20492;-79
2022/05/14 06:14:05;;;;;;;15.77;4.60;;;;;;;;;;5008992;28;20045;-79
2022/05/14 06:16:31;;;;;;;15.05;4.50;;;;;;;;;;5008657;28;20055;-79
2022/05/14 06:18:57;;;;;;;17.02;4.97;;;;;;;;;;4992941;28;20195;-79
2022/05/14 06:21:23;;;;;;;18.25;5.43;;;;;;;;;;5008829;28;20402;-79
2022/05/14 06:23:50;;;;;;;16.73;4.55;;;;;;;;;;5008736;28;20053;-79
2022/05/14 06:26:16;;;;;;;23.38;5.28;;;;;;;;;;5008847;28;20125;-79
2022/05/14 06:28:42;;;;;;;18.48;5.00;;;;;;;;;;5009192;28;20494;-79
2022/05/14 06:31:08;;;;;;;20.80;5.47;;;;;;;;;;5009221;28;20042;-79
2022/05/14 06:33:34;;;;;;;20.13;4.68;;;;;;;;;;5008859;28;20486;-79
2022/05/14 06:36:00;;;;;;;18.30;4.53;;;;;;;;;;4992072;28;20099;-79
2022/05/14 06:38:29;;;;;;;16.92;4.72;;;;;;;;;;5008085;28;20049;-80
2022/05/14 06:40:55;;;;;;;16.65;5.30;;;;;;;;;;5009124;28;20050;-80
2022/05/14 06:43:21;;;;;;;22.80;5.78;;;;;;;;;;4992381;28;20478;-80
2022/05/14 06:45:47;;;;;;;19.17;5.18;;;;;;;;;;4992370;28;20444;-80
2022/05/14 06:48:13;;;;;;;19.25;4.90;;;;;;;;;;4992538;28;20121;-80
2022/05/14 06:50:41;;;;;;;20.63;4.85;;;;;;;;;;5008084;28;20038;-79
2022/05/14 06:53:08;;;;;;;16.30;4.38;;;;;;;;;;4992314;28;20068;-80
2022/05/14 06:55:36;;;;;;;16.52;3.80;;;;;;;;;;5008544;28;20042;-80
2022/05/14 06:58:02;;;;;;;18.13;4.85;;;;;;;;;;5009186;28;20072;-80
2022/05/14 07:00:28;;;;;;;16.02;4.13;;;;;;;;;;4993804;28;20409;-80
2022/05/14 07:06:37;;;;;;;16.35;3.83;;;;;;;;;;5009761;28;20049;-80
2022/05/14 07:08:26;;;;;;;21.20;4.20;;;;;;;;;;5008513;28;20041;-80
2022/05/14 07:10:52;;;;;;;14.13;3.72;;;;;;;;;;5007737;28;20046;-80
2022/05/14 07:13:18;;;;;;;16.17;4.40;;;;;;;;;;4990357;28;20536;-80
2022/05/14 07:15:44;;;;;;;13.50;3.88;;;;;;;;;;4989621;28;20104;-79
2022/05/14 07:18:10;;;;;;;16.05;4.05;;;;;;;;;;4988966;28;20051;-80
2022/05/14 07:20:37;;;;;;;17.55;3.95;;;;;;;;;;4988627;28;20046;-80
2022/05/14 07:23:03;;;;;;;16.30;3.83;;;;;;;;;;4988747;28;20046;-80
2022/05/14 07:25:30;;;;;;;16.70;3.97;;;;;;;;;;4989482;28;20549;-80
2022/05/14 07:27:58;;;;;;;22.33;4.40;;;;;;;;;;4988918;28;20501;-80
2022/05/14 07:30:24;;;;;;;18.23;4.53;;;;;;;;;;4972428;28;20042;-81
2022/05/14 07:32:51;;;;;;;15.45;4.15;;;;;;;;;;4989271;28;20496;-80
2022/05/14 07:35:17;;;;;;;18.55;4.35;;;;;;;;;;4988958;28;20469;-80
2022/05/14 07:37:45;;;;;;;17.25;4.00;;;;;;;;;;4988340;28;20453;-80
2022/05/14 07:40:12;;;;;;;16.58;4.25;;;;;;;;;;4988504;28;20074;-80
2022/05/14 07:42:45;;;;;;;16.10;4.30;;;;;;;;;;4988275;28;20522;-80
2022/05/14 07:45:15;;;;;;;15.95;4.28;;;;;;;;;;4988303;28;20046;-80
2022/05/14 07:47:41;;;;;;;15.32;3.72;;;;;;;;;;4991247;28;20038;-80
2022/05/14 07:50:08;;;;;;;14.05;3.50;;;;;;;;;;4992056;28;20073;-80
2022/05/14 07:52:35;;;;;;;18.38;4.10;;;;;;;;;;4991498;28;20042;-80
2022/05/14 07:55:01;;;;;;;16.60;4.03;;;;;;;;;;4992224;28;20133;-80
2022/05/14 07:57:27;;;;;;;16.13;4.00;;;;;;;;;;4991892;28;20054;-80
2022/05/14 07:59:53;;;;;;;17.77;3.80;;;;;;;;;;4991730;28;20116;-80
2022/05/14 08:02:26;;;;;;;19.95;4.28;;;;;;;;;;5007993;28;20038;-80
2022/05/14 08:04:52;;;;;;;15.98;3.58;;;;;;;;;;4991805;28;20117;-80
2022/05/14 08:07:18;;;;;;;13.10;3.67;;;;;;;;;;4991426;28;20089;-80
2022/05/14 08:09:44;;;;;;;18.77;3.90;;;;;;;;;;4991675;28;20053;-80
2022/05/14 08:12:11;;;;;;;13.90;3.22;;;;;;;;;;5002524;28;20069;-80
2022/05/14 08:14:39;;;;;;;14.63;3.58;;;;;;;;;;5010650;28;20042;-80
2022/05/14 08:17:07;;;;;;;13.23;3.20;;;;;;;;;;5011268;28;20073;-80
2022/05/14 08:19:33;;;;;;;13.52;3.83;;;;;;;;;;4994424;28;20045;-80
2022/05/14 08:24:43;;;;;;;18.23;4.07;;;;;;;;;;5010960;28;20087;-80
2022/05/14 08:27:10;;;;;;;14.95;3.90;;;;;;;;;;5011233;28;20049;-80
2022/05/14 08:29:37;;;;;;;15.25;3.75;;;;;;;;;;5010261;28;20041;-80
2022/05/14 08:32:04;;;;;;;16.27;3.72;;;;;;;;;;5011265;28;20437;-80
2022/05/14 08:34:30;;;;;;;17.58;3.95;;;;;;;;;;5010340;28;20050;-80
2022/05/14 08:36:57;;;;;;;13.40;3.80;;;;;;;;;;4994314;28;20116;-80
2022/05/14 08:39:23;;;;;;;15.43;3.97;;;;;;;;;;5010674;28;20067;-80
2022/05/14 08:41:50;;;;;;;14.63;4.00;;;;;;;;;;5010745;28;20050;-80
2022/05/14 08:44:18;;;;;;;16.95;4.03;;;;;;;;;;5010969;28;20486;-80
2022/05/14 08:46:45;;;;;;;14.98;3.40;;;;;;;;;;5010009;28;20054;-80
2022/05/14 08:49:20;;;;;;;19.13;4.07;;;;;;;;;;5010282;28;20048;-80
2022/05/14 08:51:48;;;;;;;15.10;3.33;;;;;;;;;;5010499;28;20454;-80
2022/05/14 08:54:14;;;;;;;15.40;3.67;;;;;;;;;;5011845;28;20038;-80
2022/05/14 08:56:44;;;;;;;13.73;3.78;;;;;;;;;;5010251;28;20048;-80
2022/05/14 08:59:29;;;;;;;15.27;3.75;;;;;;;;;;5010451;28;20383;-80
2022/05/14 09:02:01;;;;;;;16.00;3.70;;;;;;;;;;5010309;28;20045;-80
2022/05/14 09:04:27;;;;;;;16.17;3.88;;;;;;;;;;5010217;28;20112;-80
2022/05/14 09:06:53;;;;;;;13.40;3.40;;;;;;;;;;5010136;28;20056;-80
2022/05/14 09:09:19;;;;;;;15.52;3.80;;;;;;;;;;5010113;28;20042;-80
2022/05/14 09:11:52;;;;;;;15.88;3.92;;;;;;;;;;5001920;28;20053;-80
2022/05/14 09:14:21;;;;;;;17.58;4.03;;;;;;;;;;4990604;28;20042;-80
2022/05/14 09:16:50;;;;;;;18.48;4.22;;;;;;;;;;4990304;28;20057;-80
2022/05/14 09:19:18;;;;;;;11.35;3.40;;;;;;;;;;4990643;28;20354;-80
2022/05/14 09:21:51;;;;;;;19.17;4.05;;;;;;;;;;4990284;28;20046;-80
2022/05/14 09:24:19;;;;;;;15.45;3.75;;;;;;;;;;4990294;28;20058;-79
2022/05/14 09:26:46;;;;;;;17.08;4.05;;;;;;;;;;4989670;28;20042;-79
2022/05/14 09:29:24;;;;;;;13.73;3.65;;;;;;;;;;4990384;28;20050;-79
2022/05/14 09:32:00;;;;;;;11.68;3.63;;;;;;;;;;4989642;28;20081;-79
2022/05/14 09:34:30;;;;;;;32.53;4.30;;;;;;;;;;4990098;28;20245;-79
2022/05/14 09:37:15;;;;;;;26.45;4.30;;;;;;;;;;4991312;28;20517;-79
2022/05/14 09:39:41;;;;;;;20.83;4.32;;;;;;;;;;4989741;28;20053;-79
2022/05/14 09:42:22;;;;;;;12.80;3.65;;;;;;;;;;4989982;28;20185;-79
2022/05/14 09:44:49;;;;;;;20.90;3.80;;;;;;;;;;4989934;28;20450;-79
2022/05/14 09:47:16;;;;;;;22.95;4.35;;;;;;;;;;4990006;28;20074;-79
2022/05/14 09:49:53;;;;;;;16.98;4.15;;;;;;;;;;4989666;28;20046;-79
2022/05/14 09:52:24;;;;;;;15.25;3.38;;;;;;;;;;4989904;28;20038;-78
2022/05/14 09:54:50;;;;;;;14.20;3.45;;;;;;;;;;4989837;28;20383;-79
2022/05/14 09:57:28;;;;;;;15.10;3.88;;;;;;;;;;4990455;28;20042;-80
2022/05/14 10:00:05;;;;;;;14.80;3.60;;;;;;;;;;4989955;28;20042;-79
2022/05/14 10:02:37;;;;;;;15.05;3.47;;;;;;;;;;4989701;28;20491;-79
2022/05/14 10:05:06;;;;;;;14.27;3.30;;;;;;;;;;4990391;28;20057;-80
2022/05/14 10:07:36;;;;;;;16.58;3.80;;;;;;;;;;4989764;28;20129;-80
2022/05/14 10:10:15;;;;;;;14.20;3.80;;;;;;;;;;4990090;28;20078;-80
2022/05/14 10:12:45;;;;;;;15.55;3.88;;;;;;;;;;4989405;28;20501;-80
2022/05/14 10:15:23;;;;;;;15.45;3.80;;;;;;;;;;4989470;28;20053;-80
2022/05/14 10:18:04;;;;;;;15.55;3.50;;;;;;;;;;4989438;28;20399;-80
2022/05/14 10:20:30;;;;;;;17.92;3.85;;;;;;;;;;4989255;28;20046;-80
2022/05/14 10:28:53;;;;;;;16.02;3.90;;;;;;;;;;4989315;28;20395;-79
2022/05/14 10:31:22;;;;;;;17.88;3.45;;;;;;;;;;4989079;28;20142;-80
2022/05/14 10:33:49;;;;;;;11.52;3.25;;;;;;;;;;4988717;28;20058;-80
2022/05/14 10:36:26;;;;;;;17.35;3.88;;;;;;;;;;4989598;28;20375;-80
2022/05/14 10:39:07;;;;;;;15.30;3.47;;;;;;;;;;4989208;28;20108;-80
2022/05/14 10:41:45;;;;;;;16.00;3.40;;;;;;;;;;4988953;28;20054;-80
2022/05/14 10:44:43;;;;;;;16.90;3.63;;;;;;;;;;4988637;28;20561;-80
2022/05/14 10:47:11;;;;;;;14.68;4.00;;;;;;;;;;4951052;28;20050;-80
2022/05/14 10:49:47;;;;;;;19.30;4.20;;;;;;;;;;4989354;28;20042;-80
2022/05/14 10:52:15;;;;;;;16.48;3.50;;;;;;;;;;4988960;28;20046;-80
2022/05/14 10:54:42;;;;;;;16.42;3.67;;;;;;;;;;4990431;28;20498;-79
2022/05/14 10:57:14;;;;;;;17.83;3.83;;;;;;;;;;5008920;28;20260;-80
2022/05/14 10:59:42;;;;;;;14.43;3.63;;;;;;;;;;5005189;28;20050;-76
2022/05/14 11:02:11;;;;;;;15.95;3.50;;;;;;;;;;5007428;28;20042;-81
2022/05/14 11:04:50;;;;;;;18.17;4.10;;;;;;;;;;5007589;28;20038;-79
2022/05/14 11:07:34;;;;;;;20.67;3.72;;;;;;;;;;5006572;28;20049;-83
2022/05/14 11:10:19;;;;;;;16.25;3.80;;;;;;;;;;4991697;28;20045;-79
2022/05/14 11:12:48;;;;;;;18.27;3.45;;;;;;;;;;5007919;28;20065;-79
2022/05/14 11:15:23;;;;;;;15.38;3.75;;;;;;;;;;5008385;28;21072;-79
2022/05/14 11:17:49;;;;;;;;;;;;;;;;;;5005402;28;20045;-80
2022/05/14 11:20:19;;;;;;;16.85;3.92;;;;;;;;;;5008776;28;19982;-78
2022/05/14 11:22:47;;;;;;;16.02;3.90;;;;;;;;;;5012580;28;20181;-78
2022/05/14 11:25:14;;;;;;;14.50;3.30;;;;;;;;;;5012805;28;20044;-81
2022/05/14 11:27:41;;;;;;;17.60;4.13;;;;;;;;;;5012379;28;20038;-80
2022/05/14 11:30:14;;;;;;;16.27;3.95;;;;;;;;;;4996042;28;20056;-80
2022/05/14 11:32:46;;;;;;;13.07;3.50;;;;;;;;;;5013116;28;20724;-80
2022/05/14 11:35:12;;;;;;;14.05;3.50;;;;;;;;;;5012546;28;20046;-80
2022/05/14 11:37:44;;;;;;;16.83;3.97;;;;;;;;;;5012572;28;20045;-80
2022/05/14 11:40:16;;;;;;;18.98;3.90;;;;;;;;;;4994080;28;20070;-79
2022/05/14 11:42:43;;;;;;;19.63;3.88;;;;;;;;;;5012848;28;20754;-79
2022/05/14 11:45:18;;;;;;;16.48;3.72;;;;;;;;;;5012430;28;20103;-80
2022/05/14 11:47:56;;;;;;;18.20;4.18;;;;;;;;;;5011195;28;20049;-80
2022/05/14 11:50:26;;;;;;;14.20;3.83;;;;;;;;;;5008824;28;20045;-80
2022/05/14 11:53:11;;;;;;;11.05;3.53;;;;;;;;;;5012284;28;20389;-80
2022/05/14 11:55:44;;;;;;;17.08;3.60;;;;;;;;;;5007358;28;20061;-80
2022/05/14 11:58:13;;;;;;;20.70;3.88;;;;;;;;;;5011919;28;20069;-79
2022/05/14 12:00:40;;;;;;;18.60;3.55;;;;;;;;;;5011345;28;20064;-79
2022/05/14 12:03:21;;;;;;;15.30;4.15;;;;;;;;;;5001762;28;20057;-80
2022/05/14 12:05:57;;;;;;;16.38;3.95;;;;;;;;;;5009719;28;20080;-80
2022/05/14 12:08:23;;;;;;;18.90;4.35;;;;;;;;;;5002438;28;20434;-80
2022/05/14 12:10:54;;;;;;;14.70;3.60;;;;;;;;;;5012213;28;20038;-81
2022/05/14 12:13:39;;;;;;;13.90;3.40;;;;;;;;;;5009987;28;20042;-81
2022/05/14 12:16:05;;;;;;;15.50;3.80;;;;;;;;;;4994331;28;20536;-80
2022/05/14 12:18:32;;;;;;;19.35;4.10;;;;;;;;;;4994982;28;20042;-80
2022/05/14 12:20:58;;;;;;;17.40;3.33;;;;;;;;;;5010510;28;20497;-80
2022/05/14 12:23:33;;;;;;;15.48;3.97;;;;;;;;;;5011473;28;20494;-80
2022/05/14 12:26:00;;;;;;;15.48;4.18;;;;;;;;;;5011630;28;20100;-80
2022/05/14 12:28:28;;;;;;;15.07;3.90;;;;;;;;;;5011044;28;20053;-80
2022/05/14 12:33:57;;;;;;;14.40;3.85;;;;;;;;;;4991077;28;20050;-81
2022/05/14 12:36:24;;;;;;;14.60;3.88;;;;;;;;;;4991814;28;20049;-81
2022/05/14 12:38:50;;;;;;;13.68;3.72;;;;;;;;;;4997257;28;20050;-81
2022/05/14 12:41:27;;;;;;;14.60;3.22;;;;;;;;;;5001943;28;20042;-81
2022/05/14 12:43:54;;;;;;;13.75;3.33;;;;;;;;;;4992308;28;20801;-81
2022/05/14 12:46:22;;;;;;;15.30;3.85;;;;;;;;;;4991679;28;20117;-82
2022/05/14 12:48:49;;;;;;;13.10;3.42;;;;;;;;;;4992787;28;20050;-82
2022/05/14 12:51:21;;;;;;;14.05;3.22;;;;;;;;;;4991041;28;20527;-81
2022/05/14 12:53:47;;;;;;;11.88;3.20;;;;;;;;;;4991394;28;20049;-82
2022/05/14 12:56:15;;;;;;;17.35;4.10;;;;;;;;;;4991234;28;20046;-80
2022/05/14 12:58:41;;;;;;;17.13;4.05;;;;;;;;;;4991152;28;20050;-78
2022/05/14 13:01:08;;;;;;;15.52;3.88;;;;;;;;;;5005347;28;20052;-78
2022/05/14 13:03:42;;;;;;;13.52;3.33;;;;;;;;;;5011839;28;20128;-78
2022/05/14 13:06:17;;;;;;;12.20;2.80;;;;;;;;;;5011706;28;20061;-78
2022/05/14 13:08:45;;;;;;;13.23;3.28;;;;;;;;;;5010686;28;20061;-78
2022/05/14 13:11:15;;;;;;;14.73;3.35;;;;;;;;;;5010576;28;20095;-79
2022/05/14 13:13:43;;;;;;;12.50;3.70;;;;;;;;;;4993170;28;20141;-77
2022/05/14 13:16:20;;;;;;;15.82;3.47;;;;;;;;;;4990972;28;20100;-77
2022/05/14 13:18:49;;;;;;;18.13;3.97;;;;;;;;;;4990889;28;20049;-77
2022/05/14 13:21:35;;;;;;;14.48;3.55;;;;;;;;;;4998181;28;20042;-77
2022/05/14 13:24:03;;;;;;;15.65;3.65;;;;;;;;;;5009007;28;20478;-78
2022/05/14 13:26:41;;;;;;;14.80;4.03;;;;;;;;;;5011298;28;20042;-77
2022/05/14 13:29:11;;;;;;;15.60;3.70;;;;;;;;;;5011103;28;20041;-77
2022/05/14 13:31:37;;;;;;;17.60;3.53;;;;;;;;;;5007551;28;20124;-77
2022/05/14 13:37:07;;;;;;;11.80;3.20;;;;;;;;;;5008621;28;20042;-77
2022/05/14 13:37:11;;;;;;;12.65;3.33;;;;;;;;;;5000690;28;20060;-77
2022/05/14 13:39:49;;;;;;;13.68;3.10;;;;;;;;;;5009064;28;20080;-77
2022/05/14 13:42:21;;;;;;;10.30;3.13;;;;;;;;;;4993144;28;20045;-80
2022/05/14 13:44:49;;;;;;;13.10;3.58;;;;;;;;;;4993330;28;20050;-81
2022/05/14 13:47:21;;;;;;;12.93;3.50;;;;;;;;;;4989960;28;20042;-81
2022/05/14 13:49:50;;;;;;;14.75;4.07;;;;;;;;;;4989988;28;20100;-81
2022/05/14 13:52:23;;;;;;;15.20;3.40;;;;;;;;;;4990407;28;20082;-76
2022/05/14 13:55:00;;;;;;;13.68;3.42;;;;;;;;;;4990946;28;20034;-78
2022/05/14 13:57:26;;;;;;;11.90;3.40;;;;;;;;;;4991427;28;20061;-78
2022/05/14 14:00:07;;;;;;;17.40;3.30;;;;;;;;;;4973500;28;20038;-78
2022/05/14 14:02:33;;;;;;;16.67;3.30;;;;;;;;;;4990125;28;20534;-79
2022/05/14 14:05:00;;;;;;;9.55;3.20;;;;;;;;;;4995832;28;20402;-77
2022/05/14 14:07:28;;;;;;;14.10;3.28;;;;;;;;;;5008728;28;20549;-77
2022/05/14 14:09:54;;;;;;;15.77;3.55;;;;;;;;;;5009518;28;20042;-78
2022/05/14 14:12:23;;;;;;;11.07;3.47;;;;;;;;;;4997583;28;20441;-78
2022/05/14 14:14:49;;;;;;;15.70;3.83;;;;;;;;;;4973800;28;20086;-78
2022/05/14 14:17:15;;;;;;;16.83;4.15;;;;;;;;;;4991965;28;20030;-78
2022/05/14 14:19:41;;;;;;;15.18;3.60;;;;;;;;;;4989494;28;20052;-79
2022/05/14 14:22:09;;;;;;;16.85;3.70;;;;;;;;;;4989639;28;20046;-78
2022/05/14 14:24:38;;;;;;;13.82;3.28;;;;;;;;;;4989438;28;20495;-78
2022/05/14 14:27:04;;;;;;;14.60;3.53;;;;;;;;;;4990913;28;20046;-79
2022/05/14 14:29:30;;;;;;;15.70;3.80;;;;;;;;;;4989878;28;20104;-79
2022/05/14 14:31:56;;;;;;;16.52;4.10;;;;;;;;;;4989225;28;20042;-77
2022/05/14 14:34:23;;;;;;;15.70;4.03;;;;;;;;;;4989582;28;20474;-78
2022/05/14 14:36:49;;;;;;;11.93;3.45;;;;;;;;;;4990277;28;20050;-77
2022/05/14 14:39:15;;;;;;;18.55;3.88;;;;;;;;;;4989622;28;20050;-77
2022/05/14 14:41:41;;;;;;;16.02;3.50;;;;;;;;;;4989559;28;20048;-77
2022/05/14 14:44:08;;;;;;;15.73;4.25;;;;;;;;;;4989718;28;20081;-77
2022/05/14 14:46:34;;;;;;;12.95;3.58;;;;;;;;;;4989808;28;20038;-77
2022/05/14 14:49:03;;;;;;;16.42;3.83;;;;;;;;;;4990967;28;20525;-77
2022/05/14 14:51:30;;;;;;;15.27;3.65;;;;;;;;;;4989297;28;20050;-77
2022/05/14 14:53:56;;;;;;;18.67;3.58;;;;;;;;;;4989602;28;20046;-77
2022/05/14 14:56:24;;;;;;;13.98;3.25;;;;;;;;;;4990952;28;20073;-77
2022/05/14 14:58:50;;;;;;;14.07;3.63;;;;;;;;;;4994383;28;20113;-77
2022/05/14 15:01:20;;;;;;;15.05;3.35;;;;;;;;;;4993597;28;20618;-78
2022/05/14 15:03:51;;;;;;;17.10;3.50;;;;;;;;;;4994820;28;20096;-77